sensor_id;sensor_type;location;lat;lon;timestamp;temperature;humidity
23633;DHT22;11993;48.748;9.166;2023-05-16T00:00:04;13.30;76.20
23633;DHT22;11993;48.748;9.166;2023-05-16T00:02:34;13.20;76.50
23633;DHT22;11993;48.748;9.166;2023-05-16T00:05:02;13.10;76.60
23633;DHT22;11993;48.748;9.166;2023-05-16T00:07:29;13.00;77.20
23633;DHT22;11993;48.748;9.166;2023-05-16T00:09:55;13.00;77.10
23633;DHT22;11993;48.748;9.166;2023-05-16T00:12:21;13.10;77.10
23633;DHT22;11993;48.748;9.166;2023-05-16T00:14:47;13.00;77.10
23633;DHT22;11993;48.748;9.166;2023-05-16T00:17:13;13.00;76.90
23633;DHT22;11993;48.748;9.166;2023-05-16T00:19:38;12.90;77.40
23633;DHT22;11993;48.748;9.166;2023-05-16T00:22:05;12.90;77.40
23633;DHT22;11993;48.748;9.166;2023-05-16T00:24:32;12.70;77.80
23633;DHT22;11993;48.748;9.166;2023-05-16T00:26:58;12.90;77.50
23633;DHT22;11993;48.748;9.166;2023-05-16T00:29:25;12.80;77.80
23633;DHT22;11993;48.748;9.166;2023-05-16T00:31:50;12.90;77.80
23633;DHT22;11993;48.748;9.166;2023-05-16T00:34:16;12.90;77.80
23633;DHT22;11993;48.748;9.166;2023-05-16T00:36:42;12.80;78.00
23633;DHT22;11993;48.748;9.166;2023-05-16T00:39:08;12.90;77.90
23633;DHT22;11993;48.748;9.166;2023-05-16T00:41:35;12.80;78.40
23633;DHT22;11993;48.748;9.166;2023-05-16T00:44:01;12.80;78.80
23633;DHT22;11993;48.748;9.166;2023-05-16T00:46:27;12.70;79.00
23633;DHT22;11993;48.748;9.166;2023-05-16T00:48:52;12.70;79.10
23633;DHT22;11993;48.748;9.166;2023-05-16T00:51:18;12.60;79.40
23633;DHT22;11993;48.748;9.166;2023-05-16T00:53:44;12.80;79.20
23633;DHT22;11993;48.748;9.166;2023-05-16T00:56:09;12.90;78.70
23633;DHT22;11993;48.748;9.166;2023-05-16T00:58:36;12.80;79.00
23633;DHT22;11993;48.748;9.166;2023-05-16T01:01:01;12.70;79.40
23633;DHT22;11993;48.748;9.166;2023-05-16T01:03:29;12.50;80.20
23633;DHT22;11993;48.748;9.166;2023-05-16T01:05:54;12.60;79.90
23633;DHT22;11993;48.748;9.166;2023-05-16T01:08:21;12.50;80.30
23633;DHT22;11993;48.748;9.166;2023-05-16T01:11:11;12.60;80.20
23633;DHT22;11993;48.748;9.166;2023-05-16T01:14:04;12.50;80.30
23633;DHT22;11993;48.748;9.166;2023-05-16T01:22:28;12.30;80.50
23633;DHT22;11993;48.748;9.166;2023-05-16T01:27:34;12.60;80.00
23633;DHT22;11993;48.748;9.166;2023-05-16T01:30:16;12.50;80.40
23633;DHT22;11993;48.748;9.166;2023-05-16T01:32:41;12.60;80.30
23633;DHT22;11993;48.748;9.166;2023-05-16T01:35:10;12.40;80.50
23633;DHT22;11993;48.748;9.166;2023-05-16T01:40:40;12.20;81.10
23633;DHT22;11993;48.748;9.166;2023-05-16T01:43:13;12.10;81.60
23633;DHT22;11993;48.748;9.166;2023-05-16T01:45:54;12.10;81.60
23633;DHT22;11993;48.748;9.166;2023-05-16T01:48:25;12.10;81.50
23633;DHT22;11993;48.748;9.166;2023-05-16T01:50:54;12.10;81.60
23633;DHT22;11993;48.748;9.166;2023-05-16T01:53:28;12.10;81.70
23633;DHT22;11993;48.748;9.166;2023-05-16T01:55:59;12.20;81.50
23633;DHT22;11993;48.748;9.166;2023-05-16T01:58:29;12.00;82.30
23633;DHT22;11993;48.748;9.166;2023-05-16T02:01:01;11.80;82.90
23633;DHT22;11993;48.748;9.166;2023-05-16T02:03:30;11.90;82.50
23633;DHT22;11993;48.748;9.166;2023-05-16T02:05:56;11.80;82.60
23633;DHT22;11993;48.748;9.166;2023-05-16T02:08:23;11.90;82.40
23633;DHT22;11993;48.748;9.166;2023-05-16T02:10:48;11.90;82.30
23633;DHT22;11993;48.748;9.166;2023-05-16T02:13:14;11.90;82.00
23633;DHT22;11993;48.748;9.166;2023-05-16T02:15:39;11.90;82.70
23633;DHT22;11993;48.748;9.166;2023-05-16T02:18:05;11.70;82.90
23633;DHT22;11993;48.748;9.166;2023-05-16T02:20:30;11.90;82.80
23633;DHT22;11993;48.748;9.166;2023-05-16T02:22:56;11.80;82.50
23633;DHT22;11993;48.748;9.166;2023-05-16T02:25:22;11.80;82.70
23633;DHT22;11993;48.748;9.166;2023-05-16T02:27:48;11.70;83.10
23633;DHT22;11993;48.748;9.166;2023-05-16T02:30:13;11.60;83.30
23633;DHT22;11993;48.748;9.166;2023-05-16T02:32:39;11.60;83.20
23633;DHT22;11993;48.748;9.166;2023-05-16T02:35:05;11.60;83.10
23633;DHT22;11993;48.748;9.166;2023-05-16T02:37:32;11.60;83.20
23633;DHT22;11993;48.748;9.166;2023-05-16T02:39:58;11.60;83.10
23633;DHT22;11993;48.748;9.166;2023-05-16T02:42:25;11.60;83.50
23633;DHT22;11993;48.748;9.166;2023-05-16T02:44:51;11.60;83.30
23633;DHT22;11993;48.748;9.166;2023-05-16T02:47:17;11.60;83.30
23633;DHT22;11993;48.748;9.166;2023-05-16T02:49:42;11.70;83.00
23633;DHT22;11993;48.748;9.166;2023-05-16T02:52:08;11.70;83.00
23633;DHT22;11993;48.748;9.166;2023-05-16T02:54:34;11.70;82.70
23633;DHT22;11993;48.748;9.166;2023-05-16T02:56:59;11.60;83.00
23633;DHT22;11993;48.748;9.166;2023-05-16T02:59:25;11.60;83.30
23633;DHT22;11993;48.748;9.166;2023-05-16T03:01:51;11.80;82.90
23633;DHT22;11993;48.748;9.166;2023-05-16T03:04:16;11.70;82.70
23633;DHT22;11993;48.748;9.166;2023-05-16T03:06:42;11.70;82.90
23633;DHT22;11993;48.748;9.166;2023-05-16T03:09:08;11.60;82.90
23633;DHT22;11993;48.748;9.166;2023-05-16T03:11:34;11.60;83.10
23633;DHT22;11993;48.748;9.166;2023-05-16T03:14:00;11.60;83.40
23633;DHT22;11993;48.748;9.166;2023-05-16T03:16:25;11.50;83.40
23633;DHT22;11993;48.748;9.166;2023-05-16T03:18:55;11.50;83.40
23633;DHT22;11993;48.748;9.166;2023-05-16T03:21:20;11.60;83.20
23633;DHT22;11993;48.748;9.166;2023-05-16T03:23:46;11.60;82.90
23633;DHT22;11993;48.748;9.166;2023-05-16T03:26:11;11.60;83.10
23633;DHT22;11993;48.748;9.166;2023-05-16T03:28:37;11.50;83.90
23633;DHT22;11993;48.748;9.166;2023-05-16T03:31:02;11.60;82.90
23633;DHT22;11993;48.748;9.166;2023-05-16T03:33:28;11.50;83.40
23633;DHT22;11993;48.748;9.166;2023-05-16T03:35:53;11.40;83.50
23633;DHT22;11993;48.748;9.166;2023-05-16T03:38:19;11.30;84.00
23633;DHT22;11993;48.748;9.166;2023-05-16T03:40:45;11.40;83.70
23633;DHT22;11993;48.748;9.166;2023-05-16T03:43:11;11.40;84.00
23633;DHT22;11993;48.748;9.166;2023-05-16T03:45:36;11.30;84.10
23633;DHT22;11993;48.748;9.166;2023-05-16T03:48:03;11.20;84.50
23633;DHT22;11993;48.748;9.166;2023-05-16T03:50:28;11.10;84.80
23633;DHT22;11993;48.748;9.166;2023-05-16T03:52:54;11.20;84.50
23633;DHT22;11993;48.748;9.166;2023-05-16T03:55:20;11.20;84.60
23633;DHT22;11993;48.748;9.166;2023-05-16T03:57:45;11.10;84.90
23633;DHT22;11993;48.748;9.166;2023-05-16T04:00:12;11.10;84.90
23633;DHT22;11993;48.748;9.166;2023-05-16T04:02:39;11.10;85.20
23633;DHT22;11993;48.748;9.166;2023-05-16T04:05:09;11.10;85.20
23633;DHT22;11993;48.748;9.166;2023-05-16T04:07:35;11.20;85.20
23633;DHT22;11993;48.748;9.166;2023-05-16T04:10:02;11.10;85.00
23633;DHT22;11993;48.748;9.166;2023-05-16T04:12:28;11.10;85.60
23633;DHT22;11993;48.748;9.166;2023-05-16T04:14:53;11.20;85.10
23633;DHT22;11993;48.748;9.166;2023-05-16T04:17:19;11.20;85.20
23633;DHT22;11993;48.748;9.166;2023-05-16T04:19:44;11.10;85.80
23633;DHT22;11993;48.748;9.166;2023-05-16T04:22:10;11.10;85.80
23633;DHT22;11993;48.748;9.166;2023-05-16T04:24:36;11.20;85.30
23633;DHT22;11993;48.748;9.166;2023-05-16T04:27:01;11.30;85.30
23633;DHT22;11993;48.748;9.166;2023-05-16T04:29:27;11.30;85.40
23633;DHT22;11993;48.748;9.166;2023-05-16T04:31:52;11.30;85.50
23633;DHT22;11993;48.748;9.166;2023-05-16T04:34:18;11.20;85.50
23633;DHT22;11993;48.748;9.166;2023-05-16T04:36:43;11.20;85.70
23633;DHT22;11993;48.748;9.166;2023-05-16T04:39:09;11.30;85.30
23633;DHT22;11993;48.748;9.166;2023-05-16T04:41:34;11.50;85.00
23633;DHT22;11993;48.748;9.166;2023-05-16T04:44:01;11.50;85.00
23633;DHT22;11993;48.748;9.166;2023-05-16T04:46:29;11.40;85.40
23633;DHT22;11993;48.748;9.166;2023-05-16T04:48:54;11.50;85.00
23633;DHT22;11993;48.748;9.166;2023-05-16T04:51:20;11.60;84.80
23633;DHT22;11993;48.748;9.166;2023-05-16T04:53:46;11.60;84.50
23633;DHT22;11993;48.748;9.166;2023-05-16T04:56:12;11.70;84.30
23633;DHT22;11993;48.748;9.166;2023-05-16T04:58:37;11.80;84.10
23633;DHT22;11993;48.748;9.166;2023-05-16T05:01:03;11.80;84.10
23633;DHT22;11993;48.748;9.166;2023-05-16T05:03:29;11.70;84.50
23633;DHT22;11993;48.748;9.166;2023-05-16T05:05:54;11.70;84.20
23633;DHT22;11993;48.748;9.166;2023-05-16T05:08:20;11.60;84.60
23633;DHT22;11993;48.748;9.166;2023-05-16T05:10:46;11.70;84.20
23633;DHT22;11993;48.748;9.166;2023-05-16T05:13:12;11.70;84.50
23633;DHT22;11993;48.748;9.166;2023-05-16T05:15:37;11.70;84.40
23633;DHT22;11993;48.748;9.166;2023-05-16T05:18:03;11.90;84.20
23633;DHT22;11993;48.748;9.166;2023-05-16T05:20:28;11.90;83.90
23633;DHT22;11993;48.748;9.166;2023-05-16T05:22:54;11.90;84.00
23633;DHT22;11993;48.748;9.166;2023-05-16T05:25:20;11.80;83.80
23633;DHT22;11993;48.748;9.166;2023-05-16T05:27:45;11.80;84.00
23633;DHT22;11993;48.748;9.166;2023-05-16T05:30:11;11.90;84.10
23633;DHT22;11993;48.748;9.166;2023-05-16T05:32:37;11.80;84.20
23633;DHT22;11993;48.748;9.166;2023-05-16T05:35:03;11.70;84.30
23633;DHT22;11993;48.748;9.166;2023-05-16T05:37:28;11.60;84.70
23633;DHT22;11993;48.748;9.166;2023-05-16T05:39:55;11.60;84.60
23633;DHT22;11993;48.748;9.166;2023-05-16T05:42:21;11.70;84.20
23633;DHT22;11993;48.748;9.166;2023-05-16T05:44:46;11.70;84.00
23633;DHT22;11993;48.748;9.166;2023-05-16T05:47:12;11.80;83.90
23633;DHT22;11993;48.748;9.166;2023-05-16T05:49:38;11.80;83.70
23633;DHT22;11993;48.748;9.166;2023-05-16T05:52:04;11.70;84.00
23633;DHT22;11993;48.748;9.166;2023-05-16T05:54:29;11.80;84.20
23633;DHT22;11993;48.748;9.166;2023-05-16T05:56:58;11.80;83.90
23633;DHT22;11993;48.748;9.166;2023-05-16T05:59:24;11.80;83.70
23633;DHT22;11993;48.748;9.166;2023-05-16T06:01:50;11.80;84.20
23633;DHT22;11993;48.748;9.166;2023-05-16T06:04:19;12.00;83.90
23633;DHT22;11993;48.748;9.166;2023-05-16T06:06:45;11.70;84.20
23633;DHT22;11993;48.748;9.166;2023-05-16T06:09:10;11.80;84.30
23633;DHT22;11993;48.748;9.166;2023-05-16T06:11:38;11.70;84.30
23633;DHT22;11993;48.748;9.166;2023-05-16T06:14:03;11.90;84.00
23633;DHT22;11993;48.748;9.166;2023-05-16T06:16:29;11.90;84.10
23633;DHT22;11993;48.748;9.166;2023-05-16T06:18:55;12.00;83.70
23633;DHT22;11993;48.748;9.166;2023-05-16T06:21:20;12.00;83.90
23633;DHT22;11993;48.748;9.166;2023-05-16T06:23:46;11.90;84.00
23633;DHT22;11993;48.748;9.166;2023-05-16T06:26:12;12.00;83.90
23633;DHT22;11993;48.748;9.166;2023-05-16T06:28:37;12.00;84.00
23633;DHT22;11993;48.748;9.166;2023-05-16T06:31:03;11.90;84.30
23633;DHT22;11993;48.748;9.166;2023-05-16T06:33:28;12.00;83.80
23633;DHT22;11993;48.748;9.166;2023-05-16T06:35:54;12.10;83.50
23633;DHT22;11993;48.748;9.166;2023-05-16T06:38:20;12.10;83.30
23633;DHT22;11993;48.748;9.166;2023-05-16T06:40:45;12.10;83.30
23633;DHT22;11993;48.748;9.166;2023-05-16T06:43:11;12.20;82.90
23633;DHT22;11993;48.748;9.166;2023-05-16T06:45:37;12.10;83.00
23633;DHT22;11993;48.748;9.166;2023-05-16T06:48:03;12.20;83.00
23633;DHT22;11993;48.748;9.166;2023-05-16T06:50:29;12.10;82.80
23633;DHT22;11993;48.748;9.166;2023-05-16T06:52:55;12.10;82.50
23633;DHT22;11993;48.748;9.166;2023-05-16T06:55:20;12.10;82.60
23633;DHT22;11993;48.748;9.166;2023-05-16T06:57:46;11.90;83.70
23633;DHT22;11993;48.748;9.166;2023-05-16T07:00:12;11.70;84.00
23633;DHT22;11993;48.748;9.166;2023-05-16T07:02:38;11.80;83.60
23633;DHT22;11993;48.748;9.166;2023-05-16T07:05:05;11.80;83.50
23633;DHT22;11993;48.748;9.166;2023-05-16T07:07:30;11.90;83.80
23633;DHT22;11993;48.748;9.166;2023-05-16T07:09:56;11.90;83.20
23633;DHT22;11993;48.748;9.166;2023-05-16T07:12:21;12.10;82.80
23633;DHT22;11993;48.748;9.166;2023-05-16T07:14:47;11.90;83.00
23633;DHT22;11993;48.748;9.166;2023-05-16T07:17:12;12.00;83.30
23633;DHT22;11993;48.748;9.166;2023-05-16T07:19:38;12.10;82.70
23633;DHT22;11993;48.748;9.166;2023-05-16T07:22:03;12.10;82.80
23633;DHT22;11993;48.748;9.166;2023-05-16T07:24:29;12.10;82.70
23633;DHT22;11993;48.748;9.166;2023-05-16T07:26:55;12.10;82.60
23633;DHT22;11993;48.748;9.166;2023-05-16T07:29:20;12.00;82.70
23633;DHT22;11993;48.748;9.166;2023-05-16T07:31:46;11.80;83.20
23633;DHT22;11993;48.748;9.166;2023-05-16T07:34:12;11.80;83.00
23633;DHT22;11993;48.748;9.166;2023-05-16T07:36:37;11.80;82.90
23633;DHT22;11993;48.748;9.166;2023-05-16T07:39:03;11.70;82.60
23633;DHT22;11993;48.748;9.166;2023-05-16T07:41:29;11.90;82.80
23633;DHT22;11993;48.748;9.166;2023-05-16T07:43:55;11.80;82.50
23633;DHT22;11993;48.748;9.166;2023-05-16T07:46:21;11.70;82.20
23633;DHT22;11993;48.748;9.166;2023-05-16T07:48:47;12.00;81.60
23633;DHT22;11993;48.748;9.166;2023-05-16T07:51:12;12.10;81.40
23633;DHT22;11993;48.748;9.166;2023-05-16T07:53:38;12.00;79.60
23633;DHT22;11993;48.748;9.166;2023-05-16T07:56:04;12.10;79.50
23633;DHT22;11993;48.748;9.166;2023-05-16T07:58:30;12.20;78.80
23633;DHT22;11993;48.748;9.166;2023-05-16T08:00:56;12.30;78.50
23633;DHT22;11993;48.748;9.166;2023-05-16T08:03:21;12.60;78.40
23633;DHT22;11993;48.748;9.166;2023-05-16T08:05:48;12.60;78.70
23633;DHT22;11993;48.748;9.166;2023-05-16T08:08:13;12.60;78.20
23633;DHT22;11993;48.748;9.166;2023-05-16T08:10:39;12.70;78.40
23633;DHT22;11993;48.748;9.166;2023-05-16T08:13:04;12.50;78.60
23633;DHT22;11993;48.748;9.166;2023-05-16T08:15:30;12.60;78.60
23633;DHT22;11993;48.748;9.166;2023-05-16T08:17:57;12.50;78.80
23633;DHT22;11993;48.748;9.166;2023-05-16T08:20:23;12.60;78.80
23633;DHT22;11993;48.748;9.166;2023-05-16T08:22:48;12.60;78.80
23633;DHT22;11993;48.748;9.166;2023-05-16T08:25:14;12.60;78.70
23633;DHT22;11993;48.748;9.166;2023-05-16T08:27:39;12.50;78.60
23633;DHT22;11993;48.748;9.166;2023-05-16T08:30:05;12.60;78.60
23633;DHT22;11993;48.748;9.166;2023-05-16T08:32:31;12.60;78.60
23633;DHT22;11993;48.748;9.166;2023-05-16T08:34:57;12.20;79.70
23633;DHT22;11993;48.748;9.166;2023-05-16T08:37:22;12.10;80.30
23633;DHT22;11993;48.748;9.166;2023-05-16T08:39:48;12.20;79.80
23633;DHT22;11993;48.748;9.166;2023-05-16T08:42:15;12.20;80.00
23633;DHT22;11993;48.748;9.166;2023-05-16T08:44:41;12.10;80.70
23633;DHT22;11993;48.748;9.166;2023-05-16T08:47:11;12.10;80.10
23633;DHT22;11993;48.748;9.166;2023-05-16T08:49:40;12.10;79.80
23633;DHT22;11993;48.748;9.166;2023-05-16T08:52:08;12.00;80.10
23633;DHT22;11993;48.748;9.166;2023-05-16T08:54:35;12.00;80.10
23633;DHT22;11993;48.748;9.166;2023-05-16T08:57:02;11.90;80.70
23633;DHT22;11993;48.748;9.166;2023-05-16T08:59:28;11.90;81.00
23633;DHT22;11993;48.748;9.166;2023-05-16T09:01:57;11.80;81.20
23633;DHT22;11993;48.748;9.166;2023-05-16T09:04:23;11.60;82.50
23633;DHT22;11993;48.748;9.166;2023-05-16T09:06:51;11.70;82.80
23633;DHT22;11993;48.748;9.166;2023-05-16T09:09:16;11.70;82.90
23633;DHT22;11993;48.748;9.166;2023-05-16T09:11:42;11.60;83.60
23633;DHT22;11993;48.748;9.166;2023-05-16T09:14:07;11.70;83.40
23633;DHT22;11993;48.748;9.166;2023-05-16T09:16:33;11.90;82.80
23633;DHT22;11993;48.748;9.166;2023-05-16T09:19:00;11.80;83.40
23633;DHT22;11993;48.748;9.166;2023-05-16T09:21:27;12.00;83.00
23633;DHT22;11993;48.748;9.166;2023-05-16T09:23:53;12.00;82.80
23633;DHT22;11993;48.748;9.166;2023-05-16T09:26:19;12.10;82.90
23633;DHT22;11993;48.748;9.166;2023-05-16T09:28:46;12.10;83.00
23633;DHT22;11993;48.748;9.166;2023-05-16T09:31:19;11.90;82.70
23633;DHT22;11993;48.748;9.166;2023-05-16T09:33:45;12.00;82.50
23633;DHT22;11993;48.748;9.166;2023-05-16T09:36:10;12.00;82.90
23633;DHT22;11993;48.748;9.166;2023-05-16T09:38:36;12.10;82.60
23633;DHT22;11993;48.748;9.166;2023-05-16T09:41:02;12.10;82.80
23633;DHT22;11993;48.748;9.166;2023-05-16T09:43:28;12.30;82.70
23633;DHT22;11993;48.748;9.166;2023-05-16T09:45:53;12.60;82.40
23633;DHT22;11993;48.748;9.166;2023-05-16T09:48:20;12.60;81.80
23633;DHT22;11993;48.748;9.166;2023-05-16T09:50:48;12.60;81.60
23633;DHT22;11993;48.748;9.166;2023-05-16T09:53:24;12.50;82.00
23633;DHT22;11993;48.748;9.166;2023-05-16T09:56:07;12.50;81.90
23633;DHT22;11993;48.748;9.166;2023-05-16T09:58:34;12.70;81.70
23633;DHT22;11993;48.748;9.166;2023-05-16T10:01:00;12.60;81.90
23633;DHT22;11993;48.748;9.166;2023-05-16T10:03:27;12.60;81.80
23633;DHT22;11993;48.748;9.166;2023-05-16T10:05:54;12.60;82.00
23633;DHT22;11993;48.748;9.166;2023-05-16T10:08:24;12.90;81.50
23633;DHT22;11993;48.748;9.166;2023-05-16T10:10:51;12.80;80.20
23633;DHT22;11993;48.748;9.166;2023-05-16T10:13:22;12.70;80.00
23633;DHT22;11993;48.748;9.166;2023-05-16T10:15:49;12.70;80.50
23633;DHT22;11993;48.748;9.166;2023-05-16T10:18:21;12.60;80.30
23633;DHT22;11993;48.748;9.166;2023-05-16T10:20:50;12.70;80.20
23633;DHT22;11993;48.748;9.166;2023-05-16T10:23:20;12.50;81.00
23633;DHT22;11993;48.748;9.166;2023-05-16T10:25:47;12.60;80.80
23633;DHT22;11993;48.748;9.166;2023-05-16T10:28:17;12.80;80.20
23633;DHT22;11993;48.748;9.166;2023-05-16T10:30:44;13.10;79.40
23633;DHT22;11993;48.748;9.166;2023-05-16T10:33:16;12.90;79.00
23633;DHT22;11993;48.748;9.166;2023-05-16T10:35:42;13.10;79.20
23633;DHT22;11993;48.748;9.166;2023-05-16T10:38:09;13.00;79.30
23633;DHT22;11993;48.748;9.166;2023-05-16T10:40:37;13.20;78.80
23633;DHT22;11993;48.748;9.166;2023-05-16T10:43:07;13.20;78.40
23633;DHT22;11993;48.748;9.166;2023-05-16T10:45:33;13.30;77.80
23633;DHT22;11993;48.748;9.166;2023-05-16T10:48:01;13.60;77.00
23633;DHT22;11993;48.748;9.166;2023-05-16T10:50:42;13.50;76.70
23633;DHT22;11993;48.748;9.166;2023-05-16T10:53:22;13.40;76.60
23633;DHT22;11993;48.748;9.166;2023-05-16T11:01:26;12.70;78.20
23633;DHT22;11993;48.748;9.166;2023-05-16T11:06:28;12.60;79.40
23633;DHT22;11993;48.748;9.166;2023-05-16T11:11:55;12.60;80.30
23633;DHT22;11993;48.748;9.166;2023-05-16T11:17:18;12.20;81.80
23633;DHT22;11993;48.748;9.166;2023-05-16T11:19:50;12.00;83.20
23633;DHT22;11993;48.748;9.166;2023-05-16T11:24:51;11.90;84.00
23633;DHT22;11993;48.748;9.166;2023-05-16T11:27:28;11.90;84.80
23633;DHT22;11993;48.748;9.166;2023-05-16T11:29:58;11.70;85.40
23633;DHT22;11993;48.748;9.166;2023-05-16T11:32:25;11.70;86.00
23633;DHT22;11993;48.748;9.166;2023-05-16T11:34:51;11.70;86.30
23633;DHT22;11993;48.748;9.166;2023-05-16T11:37:18;11.60;86.80
23633;DHT22;11993;48.748;9.166;2023-05-16T11:39:47;11.60;87.20
23633;DHT22;11993;48.748;9.166;2023-05-16T11:42:13;11.50;87.60
23633;DHT22;11993;48.748;9.166;2023-05-16T11:44:39;11.50;88.10
23633;DHT22;11993;48.748;9.166;2023-05-16T11:47:05;11.40;87.60
23633;DHT22;11993;48.748;9.166;2023-05-16T11:49:33;11.50;87.30
23633;DHT22;11993;48.748;9.166;2023-05-16T11:52:02;11.50;87.80
23633;DHT22;11993;48.748;9.166;2023-05-16T11:54:28;11.60;87.30
23633;DHT22;11993;48.748;9.166;2023-05-16T11:56:53;11.50;87.30
23633;DHT22;11993;48.748;9.166;2023-05-16T11:59:19;11.50;87.00
23633;DHT22;11993;48.748;9.166;2023-05-16T12:01:46;11.50;86.60
23633;DHT22;11993;48.748;9.166;2023-05-16T12:04:16;11.40;86.80
23633;DHT22;11993;48.748;9.166;2023-05-16T12:06:42;11.40;87.00
23633;DHT22;11993;48.748;9.166;2023-05-16T12:09:14;11.50;87.00
23633;DHT22;11993;48.748;9.166;2023-05-16T12:11:41;11.50;86.90
23633;DHT22;11993;48.748;9.166;2023-05-16T12:14:09;11.40;87.10
23633;DHT22;11993;48.748;9.166;2023-05-16T12:16:36;11.40;86.60
23633;DHT22;11993;48.748;9.166;2023-05-16T12:19:04;11.30;86.80
23633;DHT22;11993;48.748;9.166;2023-05-16T12:21:31;11.40;86.90
23633;DHT22;11993;48.748;9.166;2023-05-16T12:23:57;11.60;86.20
23633;DHT22;11993;48.748;9.166;2023-05-16T12:26:30;11.70;85.80
23633;DHT22;11993;48.748;9.166;2023-05-16T12:29:00;12.00;85.10
23633;DHT22;11993;48.748;9.166;2023-05-16T12:31:28;12.10;83.80
23633;DHT22;11993;48.748;9.166;2023-05-16T12:33:57;11.90;83.90
23633;DHT22;11993;48.748;9.166;2023-05-16T12:36:25;11.70;84.30
23633;DHT22;11993;48.748;9.166;2023-05-16T12:38:52;11.70;84.00
23633;DHT22;11993;48.748;9.166;2023-05-16T12:41:18;11.60;85.00
23633;DHT22;11993;48.748;9.166;2023-05-16T12:43:44;11.60;84.20
23633;DHT22;11993;48.748;9.166;2023-05-16T12:46:10;11.80;84.10
23633;DHT22;11993;48.748;9.166;2023-05-16T12:48:36;11.70;84.00
23633;DHT22;11993;48.748;9.166;2023-05-16T12:53:48;11.60;83.40
23633;DHT22;11993;48.748;9.166;2023-05-16T12:56:14;11.60;83.50
23633;DHT22;11993;48.748;9.166;2023-05-16T12:58:41;11.60;84.20
23633;DHT22;11993;48.748;9.166;2023-05-16T13:01:06;11.70;83.40
23633;DHT22;11993;48.748;9.166;2023-05-16T13:03:33;11.70;83.50
23633;DHT22;11993;48.748;9.166;2023-05-16T13:05:59;11.60;83.30
23633;DHT22;11993;48.748;9.166;2023-05-16T13:08:26;11.50;84.10
23633;DHT22;11993;48.748;9.166;2023-05-16T13:10:52;11.40;84.00
23633;DHT22;11993;48.748;9.166;2023-05-16T13:13:17;11.40;84.30
23633;DHT22;11993;48.748;9.166;2023-05-16T13:15:44;11.30;84.50
23633;DHT22;11993;48.748;9.166;2023-05-16T13:18:10;11.30;83.60
23633;DHT22;11993;48.748;9.166;2023-05-16T13:20:35;11.40;83.90
23633;DHT22;11993;48.748;9.166;2023-05-16T13:23:04;11.20;84.60
23633;DHT22;11993;48.748;9.166;2023-05-16T13:25:30;11.20;83.80
23633;DHT22;11993;48.748;9.166;2023-05-16T13:27:56;11.10;83.40
23633;DHT22;11993;48.748;9.166;2023-05-16T13:30:21;11.10;83.10
23633;DHT22;11993;48.748;9.166;2023-05-16T13:32:47;11.30;83.70
23633;DHT22;11993;48.748;9.166;2023-05-16T13:35:13;11.30;83.50
23633;DHT22;11993;48.748;9.166;2023-05-16T13:37:38;11.00;83.10
23633;DHT22;11993;48.748;9.166;2023-05-16T13:40:06;11.00;83.70
23633;DHT22;11993;48.748;9.166;2023-05-16T13:42:35;10.90;83.60
23633;DHT22;11993;48.748;9.166;2023-05-16T13:45:02;10.90;83.30
23633;DHT22;11993;48.748;9.166;2023-05-16T13:47:27;11.10;83.90
23633;DHT22;11993;48.748;9.166;2023-05-16T13:49:53;11.00;83.30
23633;DHT22;11993;48.748;9.166;2023-05-16T13:52:19;11.00;82.90
23633;DHT22;11993;48.748;9.166;2023-05-16T13:54:45;11.00;82.50
23633;DHT22;11993;48.748;9.166;2023-05-16T13:57:11;11.10;82.50
23633;DHT22;11993;48.748;9.166;2023-05-16T13:59:36;11.10;82.30
23633;DHT22;11993;48.748;9.166;2023-05-16T14:02:02;11.10;82.00
23633;DHT22;11993;48.748;9.166;2023-05-16T14:04:28;11.20;82.50
23633;DHT22;11993;48.748;9.166;2023-05-16T14:06:53;11.40;81.80
23633;DHT22;11993;48.748;9.166;2023-05-16T14:09:20;11.60;81.30
23633;DHT22;11993;48.748;9.166;2023-05-16T14:11:46;11.50;81.30
23633;DHT22;11993;48.748;9.166;2023-05-16T14:14:11;11.40;81.20
23633;DHT22;11993;48.748;9.166;2023-05-16T14:16:37;11.30;81.10
23633;DHT22;11993;48.748;9.166;2023-05-16T14:19:02;11.20;82.10
23633;DHT22;11993;48.748;9.166;2023-05-16T14:21:28;11.30;81.90
23633;DHT22;11993;48.748;9.166;2023-05-16T14:23:53;11.50;81.50
23633;DHT22;11993;48.748;9.166;2023-05-16T14:26:19;11.30;80.80
23633;DHT22;11993;48.748;9.166;2023-05-16T14:28:49;11.40;80.70
23633;DHT22;11993;48.748;9.166;2023-05-16T14:31:15;11.50;80.90
23633;DHT22;11993;48.748;9.166;2023-05-16T14:33:41;11.50;81.10
23633;DHT22;11993;48.748;9.166;2023-05-16T14:36:08;11.40;81.30
23633;DHT22;11993;48.748;9.166;2023-05-16T14:38:33;11.30;80.90
23633;DHT22;11993;48.748;9.166;2023-05-16T14:40:59;11.30;81.30
23633;DHT22;11993;48.748;9.166;2023-05-16T14:43:25;11.30;81.80
23633;DHT22;11993;48.748;9.166;2023-05-16T14:45:51;11.40;81.20
23633;DHT22;11993;48.748;9.166;2023-05-16T14:48:16;11.40;81.60
23633;DHT22;11993;48.748;9.166;2023-05-16T14:50:42;11.40;80.30
23633;DHT22;11993;48.748;9.166;2023-05-16T14:53:07;11.60;80.20
23633;DHT22;11993;48.748;9.166;2023-05-16T14:55:33;11.50;79.40
23633;DHT22;11993;48.748;9.166;2023-05-16T14:57:59;11.60;80.10
23633;DHT22;11993;48.748;9.166;2023-05-16T15:00:25;11.70;78.40
23633;DHT22;11993;48.748;9.166;2023-05-16T15:02:51;11.80;77.20
23633;DHT22;11993;48.748;9.166;2023-05-16T15:05:17;11.80;78.00
23633;DHT22;11993;48.748;9.166;2023-05-16T15:07:43;11.60;76.60
23633;DHT22;11993;48.748;9.166;2023-05-16T15:10:09;11.80;75.40
23633;DHT22;11993;48.748;9.166;2023-05-16T15:12:35;11.70;75.30
23633;DHT22;11993;48.748;9.166;2023-05-16T15:15:01;11.80;73.90
23633;DHT22;11993;48.748;9.166;2023-05-16T15:17:26;11.80;73.30
23633;DHT22;11993;48.748;9.166;2023-05-16T15:19:52;11.90;73.20
23633;DHT22;11993;48.748;9.166;2023-05-16T15:22:19;12.10;73.40
23633;DHT22;11993;48.748;9.166;2023-05-16T15:24:44;12.20;72.90
23633;DHT22;11993;48.748;9.166;2023-05-16T15:27:10;12.20;72.00
23633;DHT22;11993;48.748;9.166;2023-05-16T15:29:36;12.30;72.20
23633;DHT22;11993;48.748;9.166;2023-05-16T15:32:05;12.30;72.60
23633;DHT22;11993;48.748;9.166;2023-05-16T15:34:30;12.40;72.50
23633;DHT22;11993;48.748;9.166;2023-05-16T15:36:57;12.50;72.80
23633;DHT22;11993;48.748;9.166;2023-05-16T15:39:23;12.50;73.20
23633;DHT22;11993;48.748;9.166;2023-05-16T15:41:50;12.60;72.70
23633;DHT22;11993;48.748;9.166;2023-05-16T15:44:16;12.40;73.10
23633;DHT22;11993;48.748;9.166;2023-05-16T15:46:42;12.40;74.70
23633;DHT22;11993;48.748;9.166;2023-05-16T15:49:07;12.70;74.10
23633;DHT22;11993;48.748;9.166;2023-05-16T15:51:33;12.60;74.30
23633;DHT22;11993;48.748;9.166;2023-05-16T15:54:00;12.70;73.40
23633;DHT22;11993;48.748;9.166;2023-05-16T15:56:26;12.80;72.70